Sparta, MI (49345)

8:31 PM EST on February 12, 2016 (GMT -0500)
Seasons Change Services LLC | | Change Station
CLOSE
Current Station
Personal Weather Station
Location: Sparta, MI
Elevation: 761 ft
Nearby Weather Stations

Elev 761 ft 43.16 °N, 85.70 °W | Updated 20 seconds ago

Overcast
Overcast
9.9 °F
Feels Like 0 °F
N
5.8
Wind Variable Wind from West
Gusts 7.4 mph

Today
High -- | Low -- °F
--% Chance of Precip.
Yesterday
High -- | Low -- °F
Precip. -- in
Pressure 30.22 in
Visibility 9.0 miles
Clouds Mostly Cloudy 2200 ft
Windchill 0 °F
Dew Point -6 °F
Humidity 48%
Rainfall 0.00 in
Snow Depth Not available.
7:45 AM 6:09 PM
Waxing Crescent, 25% visible
METAR KGRR 130053Z 34013G20KT 9SM BKN022 M11/M16 A3018 RMK AO2 SLP234 SNE49 P0000 T11061156
Pressure 30.22 in
Visibility 9.0 miles
Clouds Mostly Cloudy 2200 ft
Windchill 0 °F
Dew Point -6 °F
Humidity 48%
Rainfall 0.00 in
Snow Depth Not available.
7:45 AM 6:09 PM
Waxing Crescent, 25% visible
METAR KGRR 130053Z 34013G20KT 9SM BKN022 M11/M16 A3018 RMK AO2 SLP234 SNE49 P0000 T11061156

10-Day Weather Forecast

Almanac

Astronomy

Feb. 12, 2016 Rise Set
Actual Time
Civil Twilight
Nautical Twilight
Astronomical Twilight
Moon
Length of Visible Light
Length of Day
Tomorrow will be .
, % of the Moon is Illuminated

Today's Extremes

State Highs State Lows

Community

WunderPhotos

Upload Photos

1,892,459 photos uploaded!

WunderBlog® & News

Nearby

Air Quality

  Air Quality AQ Index Pollutant
Not available.

Snow Depth

Station Depth Elevation

Earthquake Activity

City Distance Mag. Time & Date
Minimum magnitude displayed is 2.5.

Coastal Water Temperatures

Place Temperature

Stations

Nearby Weather Stations

Station Location Temp. Windchill Dew Point Humidity Wind Precip. Elev Updated Type
                   

Watches & Warnings

There are currently no watches in effect.